Time;durP1;ratioP1;P1;durP2;ratioP2;P2;SDS_P1;SDS_P2;PMS_P1;PMS_P2;Temp;Humidity;BMP_temperature;BMP_pressure;BME280_temperature;BME280_humidity;BME280_pressure;Samples;Min_cycle;Max_cycle;Signal;HPM_P1;HPM_P2
2023/07/26 00:00:56;;;;;;;5.07;3.83;;;;;;;13.86;89.15;101143.13;5013679;28;20482;-78
2023/07/26 00:03:21;;;;;;;4.95;3.25;;;;;;;13.80;89.27;101140.16;5013924;28;20080;-78
2023/07/26 00:05:47;;;;;;;5.25;3.58;;;;;;;13.83;90.43;101153.72;5013835;28;20703;-79
2023/07/26 00:08:13;;;;;;;5.85;3.50;;;;;;;13.75;89.19;101137.88;5013581;28;20067;-79
2023/07/26 00:10:43;;;;;;;5.10;3.42;;;;;;;13.77;90.43;101147.22;5013907;28;20083;-80
2023/07/26 00:13:09;;;;;;;6.78;3.95;;;;;;;13.82;89.11;101152.09;5013709;28;20101;-79
2023/07/26 00:15:34;;;;;;;6.80;3.88;;;;;;;13.72;89.54;101127.72;5013572;28;20540;-79
2023/07/26 00:17:59;;;;;;;6.35;3.72;;;;;;;13.85;88.74;101135.44;4995969;28;20035;-81
2023/07/26 00:20:25;;;;;;;5.78;3.80;;;;;;;13.81;89.21;101140.03;4995746;28;20073;-78
2023/07/26 00:22:50;;;;;;;5.55;3.42;;;;;;;13.76;89.02;101139.53;5013239;28;20069;-78
2023/07/26 00:25:15;;;;;;;5.55;3.25;;;;;;;13.64;88.34;101138.63;5013405;28;20052;-77
2023/07/26 00:27:41;;;;;;;6.60;3.50;;;;;;;13.58;89.81;101141.69;5013394;28;20492;-78
2023/07/26 00:30:07;;;;;;;6.10;3.70;;;;;;;13.38;89.77;101117.16;5013287;28;20033;-78
2023/07/26 00:32:32;;;;;;;6.65;3.85;;;;;;;13.44;89.83;101142.63;5013197;28;20037;-78
2023/07/26 00:34:57;;;;;;;5.45;3.63;;;;;;;13.36;90.29;101138.91;5013268;28;20030;-79
2023/07/26 00:37:23;;;;;;;5.72;3.95;;;;;;;13.28;90.41;101133.47;5013168;28;20026;-79
2023/07/26 00:39:48;;;;;;;6.78;3.97;;;;;;;12.90;91.00;101083.28;5013155;28;20117;-79
2023/07/26 00:42:17;;;;;;;8.80;3.90;;;;;;;13.16;91.08;101133.31;5012979;28;20062;-79
2023/07/26 00:44:43;;;;;;;5.57;4.00;;;;;;;12.98;91.98;101113.84;5013230;28;20029;-79
2023/07/26 00:47:09;;;;;;;6.97;4.13;;;;;;;12.92;92.59;101130.66;5012787;28;20029;-77
2023/07/26 00:49:34;;;;;;;8.82;4.32;;;;;;;12.87;93.81;101137.06;5012973;28;20469;-78
2023/07/26 00:51:59;;;;;;;5.75;4.07;;;;;;;12.82;94.74;101134.78;5012760;28;20523;-78
2023/07/26 00:54:26;;;;;;;7.80;3.92;;;;;;;12.76;95.00;101131.78;5012876;28;20029;-78
2023/07/26 00:56:51;;;;;;;7.13;4.30;;;;;;;12.61;95.07;101120.69;5013018;28;20030;-79
2023/07/26 00:59:17;;;;;;;8.07;4.88;;;;;;;12.72;96.51;101135.53;5012771;28;20034;-78
2023/07/26 01:01:43;;;;;;;9.02;4.53;;;;;;;12.60;95.36;101114.69;5012684;28;20050;-79
2023/07/26 01:04:08;;;;;;;7.47;4.78;;;;;;;12.70;96.70;101132.22;5011941;28;20026;-80
2023/07/26 01:07:01;;;;;;;6.57;4.20;;;;;;;12.66;96.55;101131.56;5012805;28;20042;-79
2023/07/26 01:09:34;;;;;;;6.53;4.50;;;;;;;12.55;98.08;101139.22;4994893;28;20042;-80
2023/07/26 01:12:26;;;;;;;5.80;4.25;;;;;;;12.52;98.65;101132.50;5012881;28;20026;-80
2023/07/26 01:14:53;;;;;;;;;;;;;;;12.59;96.34;101135.50;5010108;28;20038;-79
2023/07/26 01:17:18;;;;;;;6.80;4.00;;;;;;;12.59;99.02;101144.13;5012844;28;19913;-79
2023/07/26 01:19:44;;;;;;;6.35;3.90;;;;;;;12.55;99.12;101132.28;5012698;28;20040;-80
2023/07/26 01:22:09;;;;;;;7.47;4.25;;;;;;;12.38;99.82;101118.78;5012668;28;20026;-80
2023/07/26 01:24:34;;;;;;;6.72;3.80;;;;;;;12.30;100.00;101109.78;5012639;28;20088;-80
2023/07/26 01:27:00;;;;;;;5.57;3.75;;;;;;;12.43;100.00;101140.03;5012408;28;20029;-80
2023/07/26 01:29:25;;;;;;;5.55;3.85;;;;;;;12.42;100.00;101131.44;5012724;28;20113;-78
2023/07/26 01:31:51;;;;;;;6.55;4.05;;;;;;;12.27;100.00;101109.94;5012754;28;20021;-78
2023/07/26 01:34:17;;;;;;;4.88;3.60;;;;;;;12.47;100.00;101138.88;5012557;28;20109;-78
2023/07/26 01:36:44;;;;;;;7.05;3.70;;;;;;;12.53;100.00;101141.09;5012619;28;20101;-79
2023/07/26 01:39:10;;;;;;;5.75;3.97;;;;;;;12.43;100.00;101127.91;5012941;28;20474;-79
2023/07/26 01:41:36;;;;;;;7.50;3.65;;;;;;;12.61;100.00;101136.22;5012734;28;20029;-78
2023/07/26 01:44:02;;;;;;;6.40;4.00;;;;;;;12.55;100.00;101127.09;5012784;28;20030;-79
2023/07/26 01:46:27;;;;;;;7.45;4.03;;;;;;;12.39;100.00;101092.81;5012500;28;20352;-80
2023/07/26 01:48:52;;;;;;;7.68;4.05;;;;;;;12.69;100.00;101136.56;5012364;28;20180;-78
2023/07/26 01:51:18;;;;;;;5.72;3.58;;;;;;;12.70;100.00;101143.41;5012573;28;20030;-79
2023/07/26 01:53:43;;;;;;;7.30;4.05;;;;;;;12.76;100.00;101140.38;5012447;28;20029;-79
2023/07/26 01:56:09;;;;;;;6.82;4.05;;;;;;;12.69;100.00;101125.38;5012656;28;20472;-79
2023/07/26 01:58:34;;;;;;;7.20;4.18;;;;;;;12.65;100.00;101119.53;5012640;28;20080;-78
2023/07/26 02:01:03;;;;;;;4.95;3.75;;;;;;;12.55;100.00;101106.38;5012242;28;20076;-79
2023/07/26 02:03:29;;;;;;;5.85;3.90;;;;;;;12.68;100.00;101134.88;5012553;28;20042;-79
2023/07/26 02:05:54;;;;;;;6.78;4.10;;;;;;;12.60;100.00;101143.19;5012457;28;20029;-78
2023/07/26 02:08:19;;;;;;;5.32;4.13;;;;;;;12.46;100.00;101127.69;5012256;28;20033;-80
2023/07/26 02:10:45;;;;;;;7.07;4.50;;;;;;;12.41;100.00;101147.09;5012419;28;20066;-79
2023/07/26 02:13:10;;;;;;;6.40;4.80;;;;;;;12.35;100.00;101141.34;5012495;28;20018;-79
2023/07/26 02:15:36;;;;;;;8.07;5.20;;;;;;;12.30;100.00;101143.44;4997177;28;20033;-79
2023/07/26 02:18:01;;;;;;;8.95;5.47;;;;;;;12.23;100.00;101138.75;4998500;28;20026;-80
2023/07/26 02:20:26;;;;;;;7.18;5.55;;;;;;;12.16;100.00;101129.72;5015788;28;20068;-79
2023/07/26 02:22:52;;;;;;;8.82;5.47;;;;;;;12.13;100.00;101135.09;5016006;28;20025;-79
2023/07/26 02:25:17;;;;;;;9.30;5.85;;;;;;;11.78;100.00;101083.78;4998198;28;20049;-80
2023/07/26 02:27:43;;;;;;;7.82;6.10;;;;;;;11.93;100.00;101110.50;5015683;28;20033;-80
2023/07/26 02:30:08;;;;;;;7.25;5.55;;;;;;;12.05;100.00;101128.66;5015615;28;20025;-78
2023/07/26 02:32:34;;;;;;;8.77;5.90;;;;;;;11.85;100.00;101095.44;4997798;28;20566;-79
2023/07/26 02:34:59;;;;;;;9.43;5.78;;;;;;;12.01;100.00;101123.78;5015594;28;20037;-79
2023/07/26 02:37:25;;;;;;;8.75;6.05;;;;;;;12.01;100.00;101131.53;5015339;28;20057;-79
2023/07/26 02:39:51;;;;;;;7.97;5.72;;;;;;;11.86;100.00;101107.47;5015391;28;20022;-79
2023/07/26 02:42:16;;;;;;;8.13;6.00;;;;;;;11.74;100.00;101096.09;5015232;28;20034;-79
2023/07/26 02:44:42;;;;;;;7.40;6.18;;;;;;;11.76;100.00;101104.59;4997733;28;20038;-79
2023/07/26 02:47:07;;;;;;;8.18;6.10;;;;;;;11.82;100.00;101129.28;5015461;28;20034;-79
2023/07/26 02:49:32;;;;;;;7.55;5.80;;;;;;;11.73;100.00;101120.31;5015102;28;20026;-79
2023/07/26 02:51:58;;;;;;;10.57;6.13;;;;;;;11.39;100.00;101084.53;5015064;28;20433;-78
2023/07/26 02:54:23;;;;;;;7.75;6.20;;;;;;;11.63;100.00;101126.16;5015197;28;20053;-79
2023/07/26 02:56:49;;;;;;;9.43;6.43;;;;;;;11.55;100.00;101134.41;5015008;28;20371;-79
2023/07/26 02:59:15;;;;;;;9.68;6.60;;;;;;;11.43;100.00;101114.47;5015226;28;20026;-80
2023/07/26 03:01:40;;;;;;;9.48;7.03;;;;;;;11.60;100.00;101134.97;5014907;28;20438;-79
2023/07/26 03:04:06;;;;;;;9.43;6.57;;;;;;;11.65;100.00;101142.41;4997353;28;20032;-79
2023/07/26 03:06:31;;;;;;;8.88;6.18;;;;;;;11.72;100.00;101141.13;5014829;28;20038;-79
2023/07/26 03:08:57;;;;;;;9.65;6.65;;;;;;;11.67;100.00;101112.94;4997088;28;20026;-79
2023/07/26 03:11:22;;;;;;;8.13;6.30;;;;;;;11.96;100.00;101137.00;5014778;28;20026;-80
2023/07/26 03:13:47;;;;;;;7.88;6.00;;;;;;;12.12;100.00;101141.22;5014876;28;20030;-79
2023/07/26 03:16:16;;;;;;;9.23;6.07;;;;;;;12.06;100.00;101130.31;5014529;28;20032;-79
2023/07/26 03:18:41;;;;;;;8.85;6.10;;;;;;;12.11;100.00;101127.44;5014761;28;20022;-79
2023/07/26 03:21:07;;;;;;;9.38;6.00;;;;;;;11.96;100.00;101105.09;5014558;28;20037;-78
2023/07/26 03:23:34;;;;;;;9.15;6.18;;;;;;;12.07;100.00;101131.13;5014523;28;20033;-78
2023/07/26 03:26:00;;;;;;;8.70;5.30;;;;;;;11.87;100.00;101113.47;5013722;28;20041;-79
2023/07/26 03:28:25;;;;;;;8.00;5.38;;;;;;;11.95;100.00;101137.94;5014421;28;20030;-78
2023/07/26 03:30:50;;;;;;;8.10;5.05;;;;;;;11.71;100.00;101108.41;5014749;28;20026;-79
2023/07/26 03:33:16;;;;;;;6.95;4.90;;;;;;;11.81;100.00;101129.41;5014539;28;20033;-80
2023/07/26 03:35:41;;;;;;;7.32;4.97;;;;;;;11.77;100.00;101132.13;5014321;28;20025;-79
2023/07/26 03:38:07;;;;;;;8.50;5.10;;;;;;;11.64;100.00;101130.41;5014207;28;20037;-79
2023/07/26 03:40:32;;;;;;;9.00;5.45;;;;;;;11.69;100.00;101147.28;5013954;28;20032;-79
2023/07/26 03:42:57;;;;;;;8.73;5.40;;;;;;;11.65;100.00;101145.00;4996508;28;20029;-79
2023/07/26 03:45:23;;;;;;;7.80;5.25;;;;;;;11.60;100.00;101147.88;5007776;28;20018;-79
2023/07/26 03:47:48;;;;;;;8.82;5.68;;;;;;;11.52;100.00;101149.28;4994572;28;20038;-79
2023/07/26 03:50:14;;;;;;;7.72;5.20;;;;;;;11.42;100.00;101146.44;4994505;28;20069;-79
2023/07/26 03:52:39;;;;;;;8.82;5.47;;;;;;;11.29;100.00;101135.16;4994457;28;20109;-79
2023/07/26 03:55:05;;;;;;;7.10;5.40;;;;;;;11.32;100.00;101143.59;4994003;28;20104;-79
2023/07/26 03:57:31;;;;;;;8.15;5.05;;;;;;;11.30;100.00;101149.75;4994482;28;20073;-79
2023/07/26 03:59:56;;;;;;;8.65;5.65;;;;;;;11.29;100.00;101138.56;4994130;28;20097;-78
2023/07/26 04:02:21;;;;;;;7.95;5.55;;;;;;;11.29;100.00;101148.91;4994084;28;20054;-79
2023/07/26 04:04:47;;;;;;;8.80;5.47;;;;;;;11.27;100.00;101137.84;4994244;28;20042;-79
2023/07/26 04:07:12;;;;;;;10.50;6.38;;;;;;;11.13;100.00;101123.19;4994141;28;20117;-79
2023/07/26 04:09:37;;;;;;;8.38;6.05;;;;;;;11.28;100.00;101142.09;4994117;28;20105;-79
2023/07/26 04:12:03;;;;;;;7.78;5.97;;;;;;;11.31;100.00;101138.50;4993881;28;20045;-78
2023/07/26 04:14:28;;;;;;;8.32;5.68;;;;;;;11.23;100.00;101128.63;4993914;28;20126;-78
2023/07/26 04:16:54;;;;;;;9.07;6.18;;;;;;;11.23;100.00;101135.56;4994143;28;20449;-80
2023/07/26 04:19:19;;;;;;;10.35;6.75;;;;;;;11.31;100.00;101141.09;4994091;28;20109;-80
2023/07/26 04:21:44;;;;;;;9.55;6.35;;;;;;;11.23;100.00;101130.38;4994025;28;20109;-80
2023/07/26 04:24:10;;;;;;;8.60;5.63;;;;;;;11.32;100.00;101146.16;4993862;28;20069;-79
2023/07/26 04:26:35;;;;;;;9.50;6.45;;;;;;;11.34;100.00;101146.91;4993512;28;20073;-79
2023/07/26 04:29:00;;;;;;;8.85;5.93;;;;;;;11.36;100.00;101144.22;4993906;28;20072;-78
2023/07/26 04:31:26;;;;;;;8.52;5.95;;;;;;;11.28;100.00;101129.16;4993604;28;20053;-79
2023/07/26 04:33:51;;;;;;;8.40;6.10;;;;;;;11.42;100.00;101144.69;4993919;28;20018;-79
2023/07/26 04:36:17;;;;;;;7.90;6.05;;;;;;;11.51;100.00;101147.63;4993718;28;20026;-79
2023/07/26 04:38:42;;;;;;;9.05;6.28;;;;;;;11.59;100.00;101155.72;4993427;28;20030;-79
2023/07/26 04:41:08;;;;;;;8.30;6.10;;;;;;;11.53;100.00;101125.91;4993232;28;20022;-79
2023/07/26 04:43:33;;;;;;;8.70;6.40;;;;;;;11.69;100.00;101151.63;4976173;28;20617;-79
2023/07/26 04:45:59;;;;;;;8.85;6.00;;;;;;;11.79;100.00;101157.88;4993607;28;20034;-80
2023/07/26 04:48:24;;;;;;;8.57;6.35;;;;;;;11.65;100.00;101124.31;4993618;28;20034;-79
2023/07/26 04:50:50;;;;;;;9.30;6.40;;;;;;;11.90;100.00;101149.50;4993563;28;20022;-78
2023/07/26 04:53:16;;;;;;;11.13;6.78;;;;;;;11.95;100.00;101158.63;4993548;28;20026;-80
2023/07/26 04:55:48;;;;;;;8.68;5.75;;;;;;;11.93;100.00;101144.13;4993180;28;20030;-79
2023/07/26 04:58:13;;;;;;;7.68;6.40;;;;;;;11.82;100.00;101126.69;4993438;28;20378;-80
2023/07/26 05:00:40;;;;;;;9.20;6.15;;;;;;;11.92;100.00;101135.53;4999573;23;20010;-79
2023/07/26 05:03:06;;;;;;;8.48;6.45;;;;;;;11.82;100.00;101118.13;4993330;28;20033;-80
2023/07/26 05:05:33;;;;;;;9.07;6.10;;;;;;;11.99;100.00;101141.97;4993374;28;20034;-80
2023/07/26 05:07:58;;;;;;;9.07;5.97;;;;;;;12.07;100.00;101144.06;4993195;28;20038;-80
2023/07/26 05:10:25;;;;;;;9.68;6.55;;;;;;;12.10;100.00;101145.66;4993168;28;20041;-80
2023/07/26 05:12:51;;;;;;;11.10;6.50;;;;;;;12.44;100.00;101142.53;4992959;28;20109;-79
2023/07/26 05:15:16;;;;;;;10.50;6.22;;;;;;;13.72;100.00;101138.09;4993422;28;20142;-80
2023/07/26 05:17:41;;;;;;;8.52;6.03;;;;;;;15.45;92.62;101141.63;4993202;28;20493;-80
2023/07/26 05:20:07;;;;;;;8.63;5.38;;;;;;;16.74;83.12;101122.44;4993283;28;20053;-79
2023/07/26 05:22:32;;;;;;;7.68;4.88;;;;;;;17.97;76.54;101136.16;4992934;28;20054;-76
2023/07/26 05:24:58;;;;;;;8.48;4.90;;;;;;;18.83;71.33;101137.88;4992809;28;20026;-75
2023/07/26 05:27:23;;;;;;;6.72;4.82;;;;;;;19.40;66.85;101122.06;4992687;28;20086;-79
2023/07/26 05:29:48;;;;;;;6.93;4.60;;;;;;;19.95;64.94;101125.41;5008040;28;20352;-76
2023/07/26 05:32:14;;;;;;;7.03;4.72;;;;;;;20.55;61.66;101127.41;4992834;28;20053;-76
2023/07/26 05:34:39;;;;;;;9.00;4.47;;;;;;;21.08;60.38;101137.72;4992679;28;20046;-76
2023/07/26 05:37:05;;;;;;;6.57;4.60;;;;;;;21.93;57.88;101146.38;4993041;28;20027;-77
2023/07/26 05:39:31;;;;;;;6.55;4.10;;;;;;;21.69;56.91;101112.16;4992781;28;20511;-76
2023/07/26 05:41:57;;;;;;;6.35;4.85;;;;;;;21.02;56.47;101119.94;4992802;28;20026;-79
2023/07/26 05:44:22;;;;;;;5.60;4.50;;;;;;;20.95;59.39;101144.38;4992641;28;20110;-79
2023/07/26 05:46:48;;;;;;;7.65;5.07;;;;;;;21.91;57.16;101150.13;4993224;28;20033;-77
2023/07/26 05:49:13;;;;;;;8.43;4.80;;;;;;;22.49;53.97;101120.22;4993102;28;20542;-76
2023/07/26 05:51:38;;;;;;;7.07;4.90;;;;;;;23.12;52.45;101136.06;4996541;28;20049;-77
2023/07/26 05:54:04;;;;;;;10.65;5.22;;;;;;;23.06;52.00;101138.56;4996592;28;20466;-76
2023/07/26 05:56:29;;;;;;;8.48;4.70;;;;;;;22.07;55.11;101154.63;5011568;28;20053;-77
2023/07/26 05:58:54;;;;;;;8.05;5.32;;;;;;;20.99;57.09;101149.16;4996285;28;20030;-74
2023/07/26 06:01:20;;;;;;;7.45;5.45;;;;;;;19.82;61.04;101160.84;4996498;28;20502;-75
2023/07/26 06:03:46;;;;;;;7.60;5.25;;;;;;;18.89;65.30;101158.25;4995032;28;20437;-74
2023/07/26 06:06:11;;;;;;;8.82;5.43;;;;;;;18.40;68.89;101161.06;4997078;28;20026;-76
2023/07/26 06:08:37;;;;;;;10.77;5.93;;;;;;;18.04;70.97;101172.06;4996638;28;20034;-78
2023/07/26 06:11:02;;;;;;;8.68;6.00;;;;;;;17.72;72.64;101171.47;4996131;28;20128;-77
2023/07/26 06:13:27;;;;;;;8.18;6.28;;;;;;;17.69;74.72;101167.31;4996344;28;20042;-76
2023/07/26 06:15:53;;;;;;;8.77;6.47;;;;;;;17.58;75.25;101170.00;4978397;28;20042;-81
2023/07/26 06:18:19;;;;;;;11.48;6.68;;;;;;;17.34;77.00;101162.53;4996119;28;20034;-79
2023/07/26 06:20:45;;;;;;;9.65;7.03;;;;;;;17.28;77.93;101177.88;4996030;28;20072;-79
2023/07/26 06:23:10;;;;;;;10.73;7.10;;;;;;;16.87;78.66;101156.97;4996217;28;20458;-78
2023/07/26 06:25:36;;;;;;;11.25;7.38;;;;;;;16.68;79.81;101169.03;4996108;28;20459;-79
2023/07/26 06:28:01;;;;;;;10.73;7.35;;;;;;;16.63;81.38;101191.13;4995820;28;20090;-81
2023/07/26 06:30:26;;;;;;;9.90;7.43;;;;;;;16.46;83.01;101204.69;4978047;28;20037;-83
2023/07/26 06:32:52;;;;;;;10.35;7.50;;;;;;;16.20;83.96;101206.81;4996039;28;20510;-82
2023/07/26 06:35:17;;;;;;;10.80;7.70;;;;;;;15.90;86.08;101202.25;4995734;28;20037;-83
2023/07/26 06:37:42;;;;;;;11.43;8.07;;;;;;;15.59;89.09;101169.16;4995840;28;20022;-79
2023/07/26 06:40:08;;;;;;;11.70;8.23;;;;;;;15.58;91.56;101201.34;4978404;28;20085;-81
2023/07/26 06:42:34;;;;;;;14.55;9.18;;;;;;;15.41;93.04;101187.03;4995563;28;20096;-83
2023/07/26 06:44:59;;;;;;;14.15;8.63;;;;;;;15.19;95.07;101180.06;4978239;28;20189;-82
2023/07/26 06:47:25;;;;;;;12.43;8.77;;;;;;;15.28;96.96;101207.97;4995811;28;20442;-82
2023/07/26 06:49:50;;;;;;;12.93;9.52;;;;;;;15.14;98.51;101213.38;4995606;28;20041;-82
2023/07/26 06:52:16;;;;;;;14.48;9.85;;;;;;;15.00;99.51;101213.63;4995652;28;20022;-84
2023/07/26 06:54:53;;;;;;;16.25;9.70;;;;;;;14.71;100.00;101195.00;4995533;28;20585;-81
2023/07/26 06:57:19;;;;;;;13.98;9.80;;;;;;;14.77;100.00;101221.38;4995261;28;20038;-85
2023/07/26 06:59:44;;;;;;;15.95;9.77;;;;;;;14.69;100.00;101218.50;4995462;28;20290;-82
2023/07/26 07:02:11;;;;;;;13.50;9.70;;;;;;;14.61;100.00;101213.03;4994920;28;20077;-84
2023/07/26 07:04:36;;;;;;;14.75;10.50;;;;;;;14.65;100.00;101230.09;4995509;28;20045;-81
2023/07/26 07:07:02;;;;;;;16.42;10.57;;;;;;;14.64;100.00;101229.22;4995471;28;20018;-81
2023/07/26 07:09:42;;;;;;;14.57;10.50;;;;;;;14.31;100.00;101184.91;4995473;28;20030;-84
2023/07/26 07:12:09;;;;;;;13.75;10.88;;;;;;;14.29;100.00;101198.00;4977694;28;20045;-83
2023/07/26 07:46:05;;;;;;;14.45;10.00;;;;;;;15.32;100.00;101253.63;5069506;28;20391;-89
2023/07/26 07:48:36;;;;;;;12.82;8.98;;;;;;;14.59;100.00;101093.59;5069375;28;20423;-88
2023/07/26 07:51:05;;;;;;;13.18;9.60;;;;;;;15.88;100.00;101252.84;5069196;28;20432;-86
2023/07/26 07:53:30;;;;;;;14.48;9.45;;;;;;;15.68;100.00;101182.31;5069576;28;20052;-85
2023/07/26 07:55:58;;;;;;;13.55;9.75;;;;;;;16.13;100.00;101197.03;5069302;28;20108;-87
2023/07/26 07:58:23;;;;;;;16.70;11.65;;;;;;;16.50;100.00;101229.56;5069328;28;20020;-86
2023/07/26 08:00:48;;;;;;;13.60;10.75;;;;;;;16.31;100.00;101183.31;5069247;28;20040;-84
2023/07/26 08:03:14;;;;;;;15.48;10.98;;;;;;;16.67;100.00;101230.78;5069466;28;20044;-85
2023/07/26 08:05:39;;;;;;;14.45;9.55;;;;;;;16.51;99.12;101146.94;5330774;22;20057;-86
2023/07/26 08:08:23;;;;;;;11.60;7.97;;;;;;;16.61;96.92;101122.59;5036592;23;20410;-89
2023/07/26 08:10:48;;;;;;;12.18;9.80;;;;;;;17.36;98.01;101254.59;5038276;22;20515;-87
2023/07/26 08:13:52;;;;;;;10.38;6.78;;;;;;;17.57;97.60;101257.16;4994172;28;20055;-89
2023/07/26 08:16:18;;;;;;;12.43;8.18;;;;;;;17.38;97.19;101210.06;5006616;23;20065;-91
2023/07/26 08:18:46;;;;;;;11.32;7.80;;;;;;;17.20;96.82;101165.50;5033589;28;20037;-84
2023/07/26 08:21:14;;;;;;;11.80;8.57;;;;;;;16.58;96.32;101068.09;5031397;28;20175;-90
2023/07/26 08:24:05;;;;;;;12.48;7.93;;;;;;;17.86;96.14;101259.91;5029485;28;20490;-90
2023/07/26 08:26:30;;;;;;;14.93;9.60;;;;;;;17.89;96.10;101256.19;5046375;28;20079;-88
2023/07/26 08:29:02;;;;;;;11.98;9.10;;;;;;;16.80;96.58;101061.09;5046653;28;20037;-89
2023/07/26 08:31:42;;;;;;;11.70;8.30;;;;;;;17.39;95.49;101147.28;5039953;28;20041;-87
2023/07/26 08:34:29;;;;;;;12.75;9.13;;;;;;;17.36;95.26;101118.03;5033272;28;20497;-89
2023/07/26 08:36:57;;;;;;;12.32;8.18;;;;;;;18.09;93.21;101196.94;5033153;28;20056;-84
2023/07/26 08:39:27;;;;;;;11.32;7.95;;;;;;;17.63;92.41;101115.63;5033103;28;20105;-85
2023/07/26 08:42:10;;;;;;;12.82;8.90;;;;;;;18.04;91.12;101176.47;5033265;28;20125;-91
2023/07/26 08:44:53;;;;;;;11.75;8.73;;;;;;;17.62;91.09;101108.75;5032721;28;20037;-86
2023/07/26 08:47:22;;;;;;;9.82;7.50;;;;;;;18.58;90.27;101246.53;5016498;28;20483;-86
2023/07/26 08:50:22;;;;;;;11.70;8.35;;;;;;;18.24;91.53;101157.22;5033294;28;20112;-86
2023/07/26 08:52:48;;;;;;;10.45;8.10;;;;;;;18.55;90.43;101204.94;5030282;28;20034;-83
2023/07/26 08:55:14;;;;;;;10.43;7.22;;;;;;;18.76;91.72;101224.91;5017285;28;20041;-91
2023/07/26 08:57:40;;;;;;;9.15;7.43;;;;;;;18.96;89.39;101242.22;5013960;28;20030;-84
2023/07/26 09:00:14;;;;;;;11.10;6.93;;;;;;;19.04;87.27;101233.69;5015175;28;20394;-93
2023/07/26 09:02:45;;;;;;;9.85;7.18;;;;;;;19.23;85.73;101222.34;5015048;28;20467;-84
2023/07/26 09:05:19;;;;;;;9.73;6.47;;;;;;;19.05;85.78;101169.88;5015126;28;20030;-83
2023/07/26 09:07:45;;;;;;;9.77;7.03;;;;;;;19.54;85.49;101215.84;5015149;28;20057;-82
2023/07/26 09:10:13;;;;;;;9.40;7.25;;;;;;;19.99;81.31;101230.81;5012434;28;20065;-85
2023/07/26 09:12:39;;;;;;;8.27;4.72;;;;;;;20.60;79.41;101232.72;5012621;28;20567;-83
2023/07/26 09:15:05;;;;;;;8.60;5.78;;;;;;;20.29;74.81;101128.19;5013182;28;20129;-84
2023/07/26 09:17:38;;;;;;;7.70;5.78;;;;;;;21.19;73.67;101231.97;5012699;28;20056;-83
2023/07/26 09:20:06;;;;;;;8.73;5.85;;;;;;;20.34;70.66;101098.84;4996316;28;20034;-83
2023/07/26 09:25:39;;;;;;;10.68;6.35;;;;;;;21.02;66.16;101219.72;5040155;22;20056;-84
2023/07/26 09:28:10;;;;;;;11.98;5.60;;;;;;;21.20;69.14;101217.88;5002020;28;20112;-83
2023/07/26 09:31:08;;;;;;;9.43;5.40;;;;;;;21.55;68.21;101223.97;5010945;23;20064;-80
2023/07/26 09:36:52;;;;;;;7.57;4.93;;;;;;;20.20;67.48;101044.34;4994057;28;20451;-83
2023/07/26 09:39:22;;;;;;;11.30;5.97;;;;;;;20.48;69.97;101174.44;4992965;28;20125;-82
2023/07/26 09:48:06;;;;;;;8.60;4.07;;;;;;;18.22;75.67;101163.53;5094619;28;20451;-84
2023/07/26 09:50:35;;;;;;;7.28;4.18;;;;;;;17.98;75.83;101213.56;5075632;28;20059;-84
2023/07/26 09:53:03;;;;;;;7.55;4.00;;;;;;;17.78;80.38;101207.50;5075867;28;20034;-83
2023/07/26 09:56:09;;;;;;;6.10;4.00;;;;;;;17.88;78.68;101239.69;5094027;28;20145;-83
2023/07/26 09:58:42;;;;;;;6.00;3.58;;;;;;;16.58;82.84;101062.06;5093668;28;20465;-85
2023/07/26 10:01:12;;;;;;;7.57;4.40;;;;;;;16.30;85.76;101042.69;5093734;28;20107;-80
2023/07/26 10:03:41;;;;;;;10.57;4.70;;;;;;;17.19;89.27;101176.88;5093824;28;20481;-81
2023/07/26 10:06:17;;;;;;;8.27;4.78;;;;;;;17.52;87.32;101175.78;5093762;28;20055;-84
2023/07/26 10:09:14;;;;;;;8.10;5.32;;;;;;;18.32;82.16;101246.25;5101313;28;20062;-82
2023/07/26 10:11:57;;;;;;;;;;;;;;;;;;;;;
2023/07/26 10:14:39;;;;;;;8.75;6.50;;;;;;;17.62;81.98;101071.34;5097049;28;20375;-82
2023/07/26 10:17:06;;;;;;;10.30;6.38;;;;;;;17.38;84.61;101053.44;5114012;28;20126;-82
2023/07/26 10:22:47;;;;;;;8.32;4.38;;;;;;;18.05;83.00;101249.50;5039773;22;20080;-84
2023/07/26 10:25:32;;;;;;;8.05;4.53;;;;;;;16.89;89.47;101115.09;5033077;28;20041;-82
2023/07/26 10:28:04;;;;;;;8.15;5.38;;;;;;;17.29;91.16;101218.69;5033743;28;20084;-83
2023/07/26 10:30:41;;;;;;;8.60;4.68;;;;;;;17.17;87.49;101233.63;5092537;22;20050;-83
2023/07/26 10:33:28;;;;;;;7.72;4.00;;;;;;;16.23;90.30;101099.75;5033937;28;20427;-82
2023/07/26 10:36:08;;;;;;;6.82;3.95;;;;;;;16.87;nan;101203.91;5033144;28;20036;-82
2023/07/26 10:38:38;;;;;;;6.77;4.20;;;;;;;17.20;92.51;101212.47;5032607;28;20025;-83
2023/07/26 10:41:23;;;;;;;7.78;4.53;;;;;;;17.24;91.38;101166.91;5032728;28;20033;-83
2023/07/26 10:44:00;;;;;;;8.48;4.70;;;;;;;16.66;89.11;101030.13;5032866;28;20033;-82
2023/07/26 10:46:25;;;;;;;6.75;4.20;;;;;;;16.79;89.69;101012.50;5032952;28;20045;-82
2023/07/26 10:48:52;;;;;;;7.50;4.70;;;;;;;17.46;89.64;101092.75;5033119;28;20026;-83
2023/07/26 10:51:33;;;;;;;6.72;4.22;;;;;;;18.20;87.89;101181.16;5032961;28;20055;-83
2023/07/26 10:54:00;;;;;;;8.43;5.20;;;;;;;17.67;88.72;101062.13;5032309;28;20560;-83
2023/07/26 10:56:31;;;;;;;8.32;5.15;;;;;;;18.69;87.70;101208.16;5032888;28;20072;-84
2023/07/26 10:59:23;;;;;;;9.80;5.68;;;;;;;18.17;89.07;101080.28;5015698;28;20426;-84
2023/07/26 11:01:48;;;;;;;7.63;5.07;;;;;;;19.19;87.07;101188.59;5032944;28;20029;-81
2023/07/26 11:04:18;;;;;;;10.55;5.30;;;;;;;18.96;79.82;101134.94;5032821;28;20095;-81
2023/07/26 11:07:04;;;;;;;8.90;4.55;;;;;;;19.75;79.44;101211.22;5032739;28;20104;-81
2023/07/26 11:09:32;;;;;;;8.30;5.38;;;;;;;19.22;76.03;101145.59;5031452;28;20500;-79
2023/07/26 11:11:59;;;;;;;8.23;4.80;;;;;;;19.51;77.94;101215.34;5032692;28;20034;-80
2023/07/26 11:14:28;;;;;;;8.98;5.20;;;;;;;19.41;74.55;101215.38;5032661;28;20079;-82
2023/07/26 11:16:54;;;;;;;8.38;4.75;;;;;;;19.34;71.68;101195.97;5014875;28;20025;-82
2023/07/26 11:19:20;;;;;;;10.32;5.07;;;;;;;19.40;72.40;101166.59;5032631;28;20039;-81
2023/07/26 11:21:45;;;;;;;6.70;3.97;;;;;;;19.96;69.09;101221.47;5032621;28;20032;-81
2023/07/26 11:24:11;;;;;;;8.07;4.65;;;;;;;20.20;63.83;101227.91;5032296;28;20057;-81
2023/07/26 11:26:47;;;;;;;7.65;4.25;;;;;;;20.16;67.43;101198.56;5014907;28;20040;-81
2023/07/26 11:29:13;;;;;;;6.55;3.67;;;;;;;19.39;65.23;101054.94;5011503;28;20030;-82
2023/07/26 11:31:40;;;;;;;7.78;3.95;;;;;;;20.37;63.67;101202.69;5032442;28;20351;-82
2023/07/26 11:34:14;;;;;;;7.07;3.97;;;;;;;20.52;65.62;101235.28;5032425;28;20026;-81
2023/07/26 11:36:49;;;;;;;6.35;3.90;;;;;;;19.86;66.42;101105.38;5014725;28;20120;-81
2023/07/26 11:39:25;;;;;;;6.28;3.30;;;;;;;20.83;61.92;101241.75;5032485;28;20049;-80
2023/07/26 11:42:35;;;;;;;7.45;3.33;;;;;;;20.93;63.55;101231.16;5032286;28;20113;-81
2023/07/26 11:45:13;;;;;;;6.57;3.03;;;;;;;20.25;62.16;101087.47;4950628;28;20552;-81
2023/07/26 11:47:45;;;;;;;7.35;3.00;;;;;;;21.16;60.29;101231.47;4952768;28;20031;-86
2023/07/26 11:53:17;;;;;;;5.43;2.90;;;;;;;21.08;61.86;101236.69;5000824;26;20077;-83
2023/07/26 11:55:43;;;;;;;6.75;3.13;;;;;;;20.63;61.15;101183.38;5032370;28;20025;-83
2023/07/26 11:58:14;;;;;;;6.20;3.47;;;;;;;20.06;58.62;101132.25;5032561;28;20040;-83
2023/07/26 12:00:48;;;;;;;6.35;3.00;;;;;;;20.22;60.41;101170.91;5014356;28;20044;-82
2023/07/26 12:03:22;;;;;;;6.15;2.95;;;;;;;20.13;58.65;101142.94;5032154;28;20057;-84
2023/07/26 12:05:50;;;;;;;6.28;3.25;;;;;;;19.69;57.11;101095.72;5030929;28;20048;-82
2023/07/26 12:08:22;;;;;;;7.68;3.55;;;;;;;19.76;59.79;101118.56;5036787;28;20054;-83
2023/07/26 12:11:01;;;;;;;5.63;2.97;;;;;;;20.66;60.16;101244.44;5035836;28;20083;-82
2023/07/26 12:13:26;;;;;;;5.43;3.05;;;;;;;20.43;63.54;101189.78;5035616;28;20438;-85
2023/07/26 12:16:11;;;;;;;6.93;3.20;;;;;;;19.61;57.20;101054.53;5035737;28;20144;-82
2023/07/26 12:18:50;;;;;;;6.22;3.40;;;;;;;19.90;55.72;101114.59;5035458;28;20128;-83